<?xml version="1.0" encoding="UTF-8" standalone="no" ?>
<gpx xmlns="http://www.topografix.com/GPX/1/1" xmlns:xsi="http://www.w3.org/2001/XMLSchema-instance" xsi:schemaLocation="http://www.topografix.com/GPX/1/1 http://www.topografix.com/GPX/1/1/gpx.xsd" version="1.1" creator="VisuGPX - https://www.visugpx.com">
  <metadata>
    <name>Argentina</name>
    <desc><![CDATA[Downloaded from eMap Software Version 2.75]]></desc>
  </metadata>
  <trk>
    <name><![CDATA[Argentina_75]]></name>
    <extensions>
      <line xmlns="http://www.topografix.com/GPX/gpx_style/0/2">
        <color>ff0000</color>
        <opacity>0.78</opacity>
        <width>0.6000</width>
      </line>
    </extensions>
    <trkseg>
      <trkpt lat="44.19987" lon="6.87875">
        <ele>1881.917969</ele>
        <time>2008-08-10T08:36:13Z</time>
      </trkpt>
      <trkpt lat="44.19987" lon="6.87873">
        <ele>1881.917969</ele>
        <time>2008-08-10T08:36:14Z</time>
      </trkpt>
      <trkpt lat="44.19984" lon="6.87869">
        <ele>1881.917969</ele>
        <time>2008-08-10T08:36:17Z</time>
      </trkpt>
      <trkpt lat="44.19978" lon="6.87858">
        <ele>1879.033936</ele>
        <time>2008-08-10T08:36:27Z</time>
      </trkpt>
      <trkpt lat="44.19976" lon="6.87843">
        <ele>1874.708252</ele>
        <time>2008-08-10T08:36:36Z</time>
      </trkpt>
      <trkpt lat="44.19972" lon="6.87832">
        <ele>1875.669434</ele>
        <time>2008-08-10T08:36:46Z</time>
      </trkpt>
      <trkpt lat="44.19956" lon="6.87811">
        <ele>1876.630859</ele>
        <time>2008-08-10T08:37:10Z</time>
      </trkpt>
      <trkpt lat="44.19944" lon="6.87794">
        <ele>1877.592041</ele>
        <time>2008-08-10T08:37:32Z</time>
      </trkpt>
      <trkpt lat="44.19929" lon="6.87774">
        <ele>1880.476074</ele>
        <time>2008-08-10T08:37:57Z</time>
      </trkpt>
      <trkpt lat="44.19918" lon="6.87759">
        <ele>1879.995361</ele>
        <time>2008-08-10T08:38:20Z</time>
      </trkpt>
      <trkpt lat="44.19899" lon="6.87742">
        <ele>1882.398682</ele>
        <time>2008-08-10T08:38:41Z</time>
      </trkpt>
      <trkpt lat="44.1989" lon="6.87714">
        <ele>1884.321533</ele>
        <time>2008-08-10T08:39:14Z</time>
      </trkpt>
      <trkpt lat="44.19869" lon="6.87699">
        <ele>1889.12793</ele>
        <time>2008-08-10T08:39:45Z</time>
      </trkpt>
      <trkpt lat="44.19856" lon="6.87693">
        <ele>1892.492676</ele>
        <time>2008-08-10T08:40:05Z</time>
      </trkpt>
      <trkpt lat="44.19847" lon="6.87686">
        <ele>1892.492676</ele>
        <time>2008-08-10T08:40:32Z</time>
      </trkpt>
      <trkpt lat="44.19847" lon="6.87686">
        <ele>1892.973145</ele>
        <time>2008-08-10T08:40:34Z</time>
      </trkpt>
      <trkpt lat="44.19838" lon="6.87684">
        <ele>1892.492676</ele>
        <time>2008-08-10T08:40:41Z</time>
      </trkpt>
      <trkpt lat="44.19821" lon="6.8768">
        <ele>1894.415039</ele>
        <time>2008-08-10T08:40:59Z</time>
      </trkpt>
      <trkpt lat="44.198" lon="6.87656">
        <ele>1898.740967</ele>
        <time>2008-08-10T08:41:28Z</time>
      </trkpt>
      <trkpt lat="44.19783" lon="6.87635">
        <ele>1901.144531</ele>
        <time>2008-08-10T08:41:54Z</time>
      </trkpt>
      <trkpt lat="44.19757" lon="6.87605">
        <ele>1905.470459</ele>
        <time>2008-08-10T08:42:30Z</time>
      </trkpt>
      <trkpt lat="44.19742" lon="6.87583">
        <ele>1906.912354</ele>
        <time>2008-08-10T08:42:57Z</time>
      </trkpt>
      <trkpt lat="44.19723" lon="6.87568">
        <ele>1911.238281</ele>
        <time>2008-08-10T08:43:27Z</time>
      </trkpt>
      <trkpt lat="44.19708" lon="6.87551">
        <ele>1913.641357</ele>
        <time>2008-08-10T08:44:01Z</time>
      </trkpt>
      <trkpt lat="44.1969" lon="6.8753">
        <ele>1917.967529</ele>
        <time>2008-08-10T08:44:37Z</time>
      </trkpt>
      <trkpt lat="44.19693" lon="6.87523">
        <ele>1922.77417</ele>
        <time>2008-08-10T08:44:49Z</time>
      </trkpt>
    </trkseg>
  </trk>
</gpx>